createdAt,value
2018-11-06T00:04:02.537Z,10.87
2018-11-06T00:09:01.019Z,10.33
2018-11-06T00:13:59.330Z,9.50
2018-11-06T00:18:57.681Z,10.23
2018-11-06T00:23:56.109Z,10.40
2018-11-06T00:28:54.517Z,10.80
2018-11-06T00:33:53.085Z,10.43
2018-11-06T00:38:51.489Z,10.27
2018-11-06T00:43:49.892Z,10.30
2018-11-06T00:48:48.296Z,9.97
2018-11-06T00:53:46.693Z,10.30
2018-11-06T00:58:45.077Z,10.47
2018-11-06T01:03:53.895Z,10.10
2018-11-06T01:08:52.294Z,10.77
2018-11-06T01:13:50.697Z,10.30
2018-11-06T01:18:49.070Z,9.73
2018-11-06T01:23:47.512Z,9.87
2018-11-06T01:28:45.865Z,10.23
2018-11-06T01:33:44.302Z,9.40
2018-11-06T01:38:42.674Z,10.17
2018-11-06T01:43:41.132Z,9.77
2018-11-06T01:48:39.503Z,9.23
2018-11-06T01:53:37.889Z,9.23
2018-11-06T01:58:36.487Z,9.13
2018-11-06T02:03:35.033Z,9.43
2018-11-06T02:08:33.412Z,10.07
2018-11-06T02:13:31.885Z,9.87
2018-11-06T02:18:30.323Z,9.03
2018-11-06T02:23:28.773Z,9.33
2018-11-06T02:28:27.217Z,9.63
2018-11-06T02:33:25.817Z,9.00
2018-11-06T02:38:24.269Z,9.87
2018-11-06T02:43:22.680Z,9.03
2018-11-06T02:48:21.075Z,8.40
2018-11-06T02:53:19.465Z,9.23
2018-11-06T02:58:17.839Z,9.10
2018-11-06T03:03:16.341Z,9.63
2018-11-06T03:08:14.789Z,9.57
2018-11-06T03:13:13.245Z,8.90
2018-11-06T03:18:11.642Z,8.83
2018-11-06T03:23:10.118Z,8.63
2018-11-06T03:28:08.564Z,8.50
2018-11-06T03:33:07.085Z,8.37
2018-11-06T03:38:05.431Z,9.13
2018-11-06T03:43:03.867Z,8.20
2018-11-06T03:48:02.248Z,8.27
2018-11-06T03:53:00.654Z,8.83
2018-11-06T03:57:59.002Z,8.77
2018-11-06T04:02:57.568Z,8.67
2018-11-06T04:07:55.945Z,8.67
2018-11-06T04:12:54.435Z,8.07
2018-11-06T04:17:52.878Z,8.50
2018-11-06T04:22:51.316Z,8.80
2018-11-06T04:27:49.696Z,8.80
2018-11-06T04:32:48.130Z,8.57
2018-11-06T04:37:46.540Z,7.50
2018-11-06T04:42:45.046Z,7.87
2018-11-06T04:47:43.493Z,7.97
2018-11-06T04:52:42.132Z,8.73
2018-11-06T04:57:40.530Z,8.60
2018-11-06T05:02:39.082Z,7.77
2018-11-06T05:07:38.049Z,8.17
2018-11-06T05:12:36.545Z,8.30
2018-11-06T05:17:34.925Z,7.63
2018-11-06T05:22:33.329Z,8.27
2018-11-06T05:27:31.879Z,7.97
2018-11-06T05:32:30.232Z,7.50
2018-11-06T05:37:28.576Z,8.17
2018-11-06T05:42:27.029Z,7.83
2018-11-06T05:47:25.421Z,7.77
2018-11-06T05:52:23.905Z,7.70
2018-11-06T05:57:22.283Z,7.13
2018-11-06T06:02:20.865Z,8.13
2018-11-06T06:07:19.228Z,8.23
2018-11-06T06:12:17.734Z,6.83
2018-11-06T06:17:16.161Z,7.30
2018-11-06T06:22:14.492Z,7.80
2018-11-06T06:27:12.868Z,7.43
2018-11-06T06:32:11.297Z,7.67
2018-11-06T06:37:09.802Z,6.83
2018-11-06T06:42:08.288Z,7.12
2018-11-06T06:47:06.629Z,7.23
2018-11-06T06:52:05.521Z,7.20
2018-11-06T06:57:03.876Z,6.97
2018-11-06T07:02:02.278Z,7.63
2018-11-06T07:07:00.718Z,7.03
2018-11-06T07:11:59.168Z,7.70
2018-11-06T07:16:57.612Z,6.57
2018-11-06T07:21:56.069Z,6.80
2018-11-06T07:26:54.573Z,6.47
2018-11-06T07:31:53.066Z,6.87
2018-11-06T07:36:51.430Z,6.80
2018-11-06T07:41:49.860Z,6.07
2018-11-06T07:46:48.242Z,6.40
2018-11-06T07:51:46.641Z,6.10
2018-11-06T07:56:46.159Z,5.77
2018-11-06T08:01:45.809Z,6.30
2018-11-06T08:06:44.201Z,5.83
2018-11-06T08:11:42.617Z,5.87
2018-11-06T08:16:41.012Z,5.50
2018-11-06T08:21:39.387Z,5.77
2018-11-06T08:26:37.765Z,5.47
2018-11-06T08:31:36.452Z,5.47
2018-11-06T08:36:34.667Z,5.97
2018-11-06T08:41:33.092Z,5.30
2018-11-06T08:46:31.516Z,5.80
2018-11-06T08:51:29.973Z,6.63
2018-11-06T08:56:28.472Z,5.73
2018-11-06T09:01:26.870Z,5.77
2018-11-06T09:06:25.238Z,5.50
2018-11-06T09:11:23.640Z,5.20
2018-11-06T09:16:22.048Z,5.30
2018-11-06T09:21:20.463Z,5.73
2018-11-06T09:26:18.853Z,5.60
2018-11-06T09:31:17.241Z,5.53
2018-11-06T09:36:15.640Z,5.17
2018-11-06T09:41:14.094Z,5.37
2018-11-06T09:46:12.423Z,5.10
2018-11-06T09:51:10.855Z,5.53
2018-11-06T09:56:09.442Z,5.23
2018-11-06T10:01:07.844Z,5.27
2018-11-06T10:06:06.318Z,5.30
2018-11-06T10:11:04.812Z,5.00
2018-11-06T10:16:03.875Z,5.47
2018-11-06T10:21:02.401Z,5.07
2018-11-06T10:26:00.778Z,5.00
2018-11-06T10:30:59.246Z,5.10
2018-11-06T10:35:57.649Z,5.10
2018-11-06T10:40:56.049Z,5.40
2018-11-06T10:45:54.575Z,4.90
2018-11-06T10:50:53.039Z,5.23
2018-11-06T10:55:51.438Z,4.90
2018-11-06T11:00:55.335Z,5.40
2018-11-06T11:05:53.781Z,4.40
2018-11-06T11:10:53.069Z,4.40
2018-11-06T11:15:51.466Z,4.90
2018-11-06T11:20:49.873Z,4.50
2018-11-06T11:25:48.430Z,4.67
2018-11-06T11:30:46.657Z,4.33
2018-11-06T11:35:45.037Z,4.90
2018-11-06T11:40:43.454Z,4.90
2018-11-06T11:45:41.887Z,4.23
2018-11-06T11:50:40.241Z,4.20
2018-11-06T11:55:38.659Z,4.77
2018-11-06T12:00:38.393Z,4.40
2018-11-06T12:05:36.877Z,4.07
2018-11-06T12:10:35.260Z,4.40
2018-11-06T12:15:33.692Z,4.80
2018-11-06T12:20:32.196Z,4.27
2018-11-06T12:25:30.895Z,4.10
2018-11-06T12:30:29.221Z,4.17
2018-11-06T12:35:27.645Z,4.20
2018-11-06T12:40:26.045Z,3.60
2018-11-06T12:45:24.431Z,4.20
2018-11-06T12:50:22.905Z,4.23
2018-11-06T12:55:21.217Z,3.97
2018-11-06T13:00:20.597Z,4.03
2018-11-06T13:05:19.064Z,4.20
2018-11-06T13:10:17.513Z,4.13
2018-11-06T13:15:17.487Z,4.27
2018-11-06T13:20:15.542Z,4.07
2018-11-06T13:25:13.909Z,3.90
2018-11-06T13:30:15.702Z,3.93
2018-11-06T13:35:14.268Z,3.80
2018-11-06T13:40:13.910Z,3.70
2018-11-06T13:45:15.197Z,3.77
2018-11-06T13:50:13.443Z,3.80
2018-11-06T13:55:13.323Z,3.60
2018-11-06T14:00:13.682Z,3.60
2018-11-06T14:05:12.462Z,3.97
2018-11-06T14:10:10.956Z,3.50
2018-11-06T14:15:09.447Z,3.93
2018-11-06T14:20:08.962Z,3.40
2018-11-06T14:25:07.397Z,3.50
2018-11-06T14:30:08.135Z,3.40
2018-11-06T14:35:06.966Z,3.80
2018-11-06T14:40:05.947Z,3.90
2018-11-06T14:45:04.638Z,3.60
2018-11-06T14:50:03.933Z,3.60
2018-11-06T14:55:02.405Z,3.30
2018-11-06T15:00:00.838Z,3.70
2018-11-06T15:04:59.333Z,3.57
2018-11-06T15:09:57.730Z,3.63
2018-11-06T15:14:56.317Z,2.80
2018-11-06T15:19:54.805Z,3.50
2018-11-06T15:24:53.217Z,3.50
2018-11-06T15:29:51.619Z,3.33
2018-11-06T15:34:50.030Z,3.43
2018-11-06T15:39:48.444Z,3.40
2018-11-06T15:44:46.914Z,3.07
2018-11-06T15:49:45.414Z,3.17
2018-11-06T15:54:43.849Z,3.53
2018-11-06T15:59:42.207Z,2.90
2018-11-06T16:04:40.743Z,3.30
2018-11-06T16:09:39.221Z,3.20
2018-11-06T16:14:37.576Z,2.70
2018-11-06T16:19:35.992Z,2.83
2018-11-06T16:24:34.397Z,2.70
2018-11-06T16:29:32.787Z,3.10
2018-11-06T16:34:31.209Z,3.00
2018-11-06T16:39:29.614Z,3.10
2018-11-06T16:44:28.008Z,3.10
2018-11-06T16:49:26.505Z,3.45
2018-11-06T16:54:24.994Z,3.10
2018-11-06T16:59:23.512Z,3.30
2018-11-06T17:04:21.893Z,2.83
2018-11-06T17:09:20.960Z,3.73
2018-11-06T17:14:19.320Z,3.00
2018-11-06T17:19:17.826Z,2.57
2018-11-06T17:24:16.280Z,3.20
2018-11-06T17:29:14.714Z,2.90
2018-11-06T17:34:13.209Z,3.23
2018-11-06T17:39:13.039Z,2.93
2018-11-06T17:44:11.566Z,2.90
2018-11-06T17:49:09.922Z,3.67
2018-11-06T17:54:08.398Z,3.03
2018-11-06T17:59:06.779Z,3.10
2018-11-06T18:04:05.299Z,2.77
2018-11-06T18:09:04.646Z,3.77
2018-11-06T18:14:03.504Z,3.10
2018-11-06T18:19:01.861Z,3.40
2018-11-06T18:24:00.431Z,3.17
2018-11-06T18:28:58.746Z,3.63
2018-11-06T18:33:57.222Z,2.93
2018-11-06T18:38:55.612Z,3.00
2018-11-06T18:43:53.998Z,3.67
2018-11-06T18:48:52.421Z,3.40
2018-11-06T18:53:50.901Z,3.20
2018-11-06T18:58:49.315Z,3.10
2018-11-06T19:03:47.793Z,3.53
2018-11-06T19:08:46.197Z,3.63
2018-11-06T19:13:44.570Z,2.87
2018-11-06T19:18:43.009Z,3.23
2018-11-06T19:23:41.563Z,3.47
2018-11-06T19:28:39.937Z,3.03
2018-11-06T19:33:38.378Z,3.90
2018-11-06T19:38:36.798Z,3.43
2018-11-06T19:43:35.326Z,3.27
2018-11-06T19:48:33.918Z,3.27
2018-11-06T19:53:32.415Z,3.77
2018-11-06T19:58:30.913Z,3.50
2018-11-06T20:03:29.485Z,3.50
2018-11-06T20:08:27.818Z,3.57
2018-11-06T20:13:26.269Z,3.33
2018-11-06T20:18:24.642Z,3.60
2018-11-06T20:23:23.051Z,4.20
2018-11-06T20:28:21.466Z,3.37
2018-11-06T20:33:19.955Z,3.23
2018-11-06T20:38:18.189Z,3.57
2018-11-06T20:43:16.677Z,3.27
2018-11-06T20:48:15.050Z,3.80
2018-11-06T20:53:13.470Z,3.40
2018-11-06T20:58:11.823Z,3.50
2018-11-06T21:03:10.363Z,3.43
2018-11-06T21:08:08.840Z,3.87
2018-11-06T21:13:07.224Z,3.00
2018-11-06T21:18:05.755Z,3.37
2018-11-06T21:23:03.946Z,3.60
2018-11-06T21:28:02.309Z,3.50
2018-11-06T21:33:00.731Z,4.20
2018-11-06T21:37:59.091Z,4.10
2018-11-06T21:42:57.524Z,3.67
2018-11-06T21:47:55.922Z,3.33
2018-11-06T21:52:54.470Z,3.37
2018-11-06T21:57:52.917Z,3.67
2018-11-06T22:02:51.418Z,3.80
2018-11-06T22:07:49.971Z,3.67
2018-11-06T22:12:48.435Z,4.00
2018-11-06T22:17:46.789Z,3.60
2018-11-06T22:22:45.759Z,3.67
2018-11-06T22:27:44.183Z,4.20
2018-11-06T22:32:43.351Z,3.80
2018-11-06T22:47:51.691Z,3.50
2018-11-06T22:52:50.123Z,3.40
2018-11-06T22:57:48.497Z,3.60
2018-11-06T23:02:47.017Z,4.00
2018-11-06T23:07:51.089Z,3.73
2018-11-06T23:12:49.572Z,3.53
2018-11-06T23:17:48.081Z,3.43
2018-11-06T23:22:47.804Z,4.00
2018-11-06T23:27:46.310Z,3.03
2018-11-06T23:32:44.776Z,3.50
2018-11-06T23:37:43.146Z,3.80
2018-11-06T23:42:41.918Z,3.53
2018-11-06T23:47:40.403Z,3.93
2018-11-06T23:52:38.977Z,3.73
2018-11-06T23:57:37.317Z,3.57
